createdAt,value
2022-12-31T00:01:40.067Z,43.00
2022-12-31T00:04:08.820Z,44.70
2022-12-31T00:06:37.717Z,44.50
2022-12-31T00:09:08.700Z,43.70
2022-12-31T00:11:38.044Z,40.50
2022-12-31T00:14:07.576Z,42.30
2022-12-31T00:16:40.629Z,44.80
2022-12-31T00:19:11.749Z,43.40
2022-12-31T00:21:40.592Z,42.30
2022-12-31T00:24:11.452Z,41.40
2022-12-31T00:26:40.309Z,40.10
2022-12-31T00:29:10.323Z,39.00
2022-12-31T00:31:39.399Z,38.30
2022-12-31T00:34:08.126Z,40.90
2022-12-31T00:36:39.846Z,41.50
2022-12-31T00:39:10.287Z,41.40
2022-12-31T00:41:39.322Z,40.10
2022-12-31T00:44:08.102Z,38.70
2022-12-31T00:49:04.699Z,38.50
2022-12-31T00:51:33.772Z,39.10
2022-12-31T00:54:02.442Z,40.50
2022-12-31T00:56:32.157Z,42.70
2022-12-31T00:59:01.156Z,39.30
2022-12-31T01:01:36.746Z,39.20
2022-12-31T01:04:16.918Z,37.90
2022-12-31T01:06:46.387Z,38.00
2022-12-31T01:09:17.070Z,38.90
2022-12-31T01:11:45.897Z,38.70
2022-12-31T01:14:19.051Z,38.50
2022-12-31T01:19:29.177Z,39.30
2022-12-31T01:21:58.114Z,40.80
2022-12-31T01:24:26.986Z,44.50
2022-12-31T01:26:58.078Z,40.70
2022-12-31T01:29:27.810Z,39.60
2022-12-31T01:31:56.616Z,35.80
2022-12-31T01:34:25.502Z,35.80
2022-12-31T01:36:54.701Z,37.80
2022-12-31T01:39:23.503Z,35.90
2022-12-31T01:41:52.464Z,37.00
2022-12-31T01:44:27.150Z,35.80
2022-12-31T01:47:01.307Z,33.70
2022-12-31T01:49:41.508Z,34.00
2022-12-31T01:52:23.489Z,33.40
2022-12-31T01:55:05.505Z,34.40
2022-12-31T01:57:35.841Z,37.90
2022-12-31T02:00:07.045Z,36.10
2022-12-31T02:02:36.079Z,36.40
2022-12-31T02:05:16.690Z,38.90
2022-12-31T02:07:47.791Z,37.90
2022-12-31T02:10:16.781Z,34.20
2022-12-31T02:12:47.281Z,37.90
2022-12-31T02:15:16.912Z,37.70
2022-12-31T02:18:14.483Z,36.20
2022-12-31T02:21:30.778Z,39.90
2022-12-31T02:24:05.112Z,36.30
2022-12-31T02:26:56.724Z,36.10
2022-12-31T02:29:52.335Z,35.00
2022-12-31T02:33:05.866Z,35.20
2022-12-31T02:36:03.087Z,35.50
2022-12-31T02:38:36.188Z,33.20
2022-12-31T02:41:05.343Z,33.60
2022-12-31T02:43:34.078Z,34.60
2022-12-31T02:46:26.259Z,36.80
2022-12-31T02:49:26.847Z,32.20
2022-12-31T02:52:34.333Z,37.00
2022-12-31T02:55:24.463Z,33.80
2022-12-31T02:58:11.255Z,32.90
2022-12-31T03:01:05.796Z,35.20
2022-12-31T03:03:36.366Z,35.40
2022-12-31T03:06:08.197Z,36.90
2022-12-31T03:08:56.915Z,34.00
2022-12-31T03:11:44.224Z,34.90
2022-12-31T03:14:13.110Z,36.10
2022-12-31T03:16:41.865Z,38.00
2022-12-31T03:19:29.021Z,39.50
2022-12-31T03:22:16.389Z,40.70
2022-12-31T03:25:03.584Z,37.70
2022-12-31T03:27:32.317Z,39.10
2022-12-31T03:30:02.237Z,37.50
2022-12-31T03:32:30.979Z,39.00
2022-12-31T03:34:59.793Z,36.10
2022-12-31T03:37:28.634Z,36.10
2022-12-31T03:39:57.686Z,35.90
2022-12-31T03:42:26.489Z,36.10
2022-12-31T03:44:55.336Z,36.60
2022-12-31T03:47:24.104Z,37.70
2022-12-31T03:49:52.979Z,35.30
2022-12-31T03:52:22.131Z,36.50
2022-12-31T03:54:51.009Z,36.50
2022-12-31T03:57:19.872Z,39.70
2022-12-31T03:59:48.590Z,39.30
2022-12-31T04:02:17.494Z,35.50
2022-12-31T04:04:46.804Z,36.50
2022-12-31T04:07:15.632Z,39.90
2022-12-31T04:09:44.401Z,36.90
2022-12-31T04:12:13.223Z,40.10
2022-12-31T04:14:42.002Z,50.20
2022-12-31T04:17:10.844Z,40.30
2022-12-31T04:19:39.799Z,37.90
2022-12-31T04:22:09.147Z,38.40
2022-12-31T04:24:37.951Z,38.70
2022-12-31T04:27:08.073Z,41.50
2022-12-31T04:29:37.074Z,40.00
2022-12-31T04:32:07.640Z,39.40
2022-12-31T04:34:36.865Z,35.80
2022-12-31T04:37:05.617Z,38.90
2022-12-31T04:39:34.472Z,44.30
2022-12-31T04:42:03.408Z,39.00
2022-12-31T04:44:35.071Z,38.90
2022-12-31T04:47:03.969Z,41.70
2022-12-31T04:49:32.715Z,40.80
2022-12-31T04:52:01.497Z,37.20
2022-12-31T04:54:30.213Z,40.60
2022-12-31T04:56:59.025Z,46.30
2022-12-31T04:59:27.752Z,40.00
2022-12-31T05:01:56.702Z,38.30
2022-12-31T05:04:25.785Z,37.10
2022-12-31T05:06:54.613Z,41.40
2022-12-31T05:09:24.269Z,44.50
2022-12-31T05:11:53.191Z,40.90
2022-12-31T05:14:22.103Z,42.00
2022-12-31T05:16:51.114Z,45.70
2022-12-31T05:19:20.023Z,43.80
2022-12-31T05:22:08.815Z,80.00
2022-12-31T05:24:37.521Z,42.00
2022-12-31T05:27:06.290Z,55.40
2022-12-31T05:29:35.072Z,77.50
2022-12-31T05:32:03.830Z,52.50
2022-12-31T05:34:32.598Z,49.30
2022-12-31T05:37:01.456Z,49.30
2022-12-31T05:39:30.183Z,42.20
2022-12-31T05:41:59.041Z,39.70
2022-12-31T05:44:27.851Z,38.50
2022-12-31T05:46:56.702Z,37.80
2022-12-31T05:49:25.540Z,49.20
2022-12-31T05:51:54.271Z,54.60
2022-12-31T05:54:22.968Z,38.70
2022-12-31T05:56:51.980Z,40.60
2022-12-31T05:59:21.054Z,40.80
2022-12-31T06:01:49.830Z,44.80
2022-12-31T06:04:18.839Z,45.00
2022-12-31T06:06:47.819Z,56.20
2022-12-31T06:09:18.272Z,52.90
2022-12-31T06:11:48.070Z,47.20
2022-12-31T06:14:16.952Z,54.90
2022-12-31T06:16:45.764Z,59.20
2022-12-31T06:19:14.548Z,48.50
2022-12-31T06:21:43.393Z,53.50
2022-12-31T06:24:12.465Z,40.90
2022-12-31T06:26:41.542Z,42.90
2022-12-31T06:29:11.254Z,67.70
2022-12-31T06:31:39.971Z,41.70
2022-12-31T06:34:08.720Z,51.10
2022-12-31T06:36:37.520Z,45.70
2022-12-31T06:39:07.324Z,42.30
2022-12-31T06:41:36.552Z,43.40
2022-12-31T06:44:05.806Z,40.70
2022-12-31T06:46:34.620Z,39.10
2022-12-31T06:49:03.423Z,38.80
2022-12-31T06:51:32.230Z,44.10
2022-12-31T06:54:01.020Z,43.20
2022-12-31T06:56:34.363Z,42.40
2022-12-31T06:59:05.331Z,40.80
2022-12-31T07:01:49.760Z,44.30
2022-12-31T07:04:52.666Z,45.30
2022-12-31T07:07:41.432Z,43.20
2022-12-31T07:10:37.965Z,52.40
2022-12-31T07:13:33.838Z,55.80
2022-12-31T07:16:29.339Z,51.60
2022-12-31T07:19:25.333Z,49.10
2022-12-31T07:21:56.216Z,50.10
2022-12-31T07:24:25.603Z,47.30
2022-12-31T07:27:30.394Z,50.50
2022-12-31T07:30:09.938Z,49.20
2022-12-31T07:33:07.355Z,49.20
2022-12-31T07:36:06.250Z,49.70
2022-12-31T07:39:07.367Z,50.30
2022-12-31T07:42:03.797Z,51.10
2022-12-31T07:44:54.304Z,52.10
2022-12-31T07:47:27.378Z,48.60
2022-12-31T07:49:57.975Z,51.80
2022-12-31T07:52:27.495Z,48.60
2022-12-31T07:54:56.487Z,48.40
2022-12-31T07:57:36.420Z,44.50
2022-12-31T08:00:15.892Z,50.30
2022-12-31T08:03:18.874Z,46.00
2022-12-31T08:06:41.879Z,44.30
2022-12-31T08:09:58.423Z,45.60
2022-12-31T08:12:34.491Z,43.10
2022-12-31T08:15:12.457Z,42.50
2022-12-31T08:17:42.473Z,41.70
2022-12-31T08:20:16.784Z,42.50
2022-12-31T08:23:27.093Z,41.60
2022-12-31T08:26:33.376Z,43.20
2022-12-31T08:29:36.176Z,40.40
2022-12-31T08:32:51.231Z,42.20
2022-12-31T08:35:47.404Z,41.20
2022-12-31T08:38:43.741Z,41.90
2022-12-31T08:41:24.178Z,40.60
2022-12-31T08:44:29.566Z,41.20
2022-12-31T08:47:09.442Z,39.80
2022-12-31T08:49:38.970Z,40.90
2022-12-31T08:52:16.480Z,40.60
2022-12-31T08:54:45.644Z,37.00
2022-12-31T08:57:38.627Z,38.30
2022-12-31T09:00:14.006Z,36.80
2022-12-31T09:03:27.320Z,37.60
2022-12-31T09:06:10.533Z,37.10
2022-12-31T09:11:54.011Z,38.10
2022-12-31T09:14:50.226Z,37.70
2022-12-31T09:17:48.842Z,37.60
2022-12-31T09:20:42.443Z,36.90
2022-12-31T09:23:14.206Z,38.80
2022-12-31T09:25:57.793Z,37.80
2022-12-31T09:28:40.624Z,38.90
2022-12-31T09:31:22.003Z,38.10
2022-12-31T09:34:21.812Z,37.00
2022-12-31T09:36:57.689Z,36.50
2022-12-31T09:39:48.826Z,35.00
2022-12-31T09:43:05.426Z,37.00
2022-12-31T09:45:58.142Z,36.30
2022-12-31T09:49:10.316Z,33.10
2022-12-31T09:52:16.251Z,34.70
2022-12-31T09:55:19.228Z,34.30
2022-12-31T09:58:26.090Z,34.70
2022-12-31T10:01:07.405Z,35.80
2022-12-31T10:04:12.759Z,35.20
2022-12-31T10:06:51.465Z,35.60
2022-12-31T10:09:49.035Z,34.30
2022-12-31T10:12:51.453Z,33.80
2022-12-31T10:15:38.752Z,33.70
2022-12-31T10:18:43.722Z,34.50
2022-12-31T10:22:01.565Z,33.60
2022-12-31T10:25:18.430Z,31.30
2022-12-31T10:28:00.547Z,33.70
2022-12-31T10:30:35.289Z,32.80
2022-12-31T10:33:34.337Z,31.80
2022-12-31T10:36:15.651Z,33.50
2022-12-31T10:39:15.426Z,32.80
2022-12-31T10:42:28.669Z,33.60
2022-12-31T10:45:32.079Z,36.20
2022-12-31T10:48:26.002Z,33.30
2022-12-31T10:51:19.451Z,34.10
2022-12-31T10:54:31.522Z,32.30
2022-12-31T10:57:41.023Z,33.40
2022-12-31T11:00:19.150Z,31.80
2022-12-31T11:03:31.016Z,33.70
2022-12-31T11:06:50.706Z,32.10
2022-12-31T11:10:15.309Z,31.50
2022-12-31T11:13:40.153Z,31.30
2022-12-31T11:16:51.295Z,31.80
2022-12-31T11:19:44.232Z,30.90
2022-12-31T11:23:12.394Z,31.50
2022-12-31T11:26:09.624Z,30.40
2022-12-31T11:28:49.883Z,31.10
2022-12-31T11:31:39.795Z,29.20
2022-12-31T11:34:43.679Z,31.80
2022-12-31T11:37:42.661Z,29.40
2022-12-31T11:41:00.545Z,28.90
2022-12-31T11:44:07.006Z,30.30
2022-12-31T11:46:51.603Z,30.70
2022-12-31T11:50:22.047Z,30.60
2022-12-31T11:53:35.090Z,29.50
2022-12-31T11:56:26.335Z,31.30
2022-12-31T11:58:56.781Z,31.40
2022-12-31T12:01:41.853Z,30.00
2022-12-31T12:04:11.850Z,29.70
2022-12-31T12:06:41.406Z,31.20
2022-12-31T12:09:28.151Z,30.00
2022-12-31T12:12:06.021Z,30.00
2022-12-31T12:14:41.725Z,30.10
2022-12-31T12:17:18.366Z,30.70
2022-12-31T12:19:54.897Z,30.50
2022-12-31T12:22:26.993Z,30.60
2022-12-31T12:25:03.208Z,31.20
2022-12-31T12:27:35.860Z,31.30
2022-12-31T12:30:21.923Z,30.50
2022-12-31T12:35:25.352Z,30.40
2022-12-31T12:38:23.272Z,29.50
2022-12-31T12:41:02.350Z,29.00
2022-12-31T12:43:37.660Z,29.40
2022-12-31T12:46:20.828Z,32.50
2022-12-31T12:48:56.499Z,32.00
2022-12-31T12:52:30.574Z,32.60
2022-12-31T12:55:21.563Z,30.90
2022-12-31T12:58:37.280Z,31.30
2022-12-31T13:01:35.084Z,30.80
2022-12-31T13:04:59.766Z,31.10
2022-12-31T13:07:48.079Z,31.10
2022-12-31T13:10:54.100Z,33.20
2022-12-31T13:13:35.215Z,32.50
2022-12-31T13:16:33.496Z,31.50
2022-12-31T13:19:22.608Z,31.20
2022-12-31T13:22:30.423Z,31.90
2022-12-31T13:25:34.242Z,30.80
2022-12-31T13:28:10.490Z,32.10
2022-12-31T13:30:51.136Z,32.30
2022-12-31T13:33:28.473Z,31.60
2022-12-31T13:35:58.190Z,34.00
2022-12-31T13:38:39.033Z,32.40
2022-12-31T13:41:42.590Z,32.40
2022-12-31T13:47:07.202Z,31.20
2022-12-31T13:49:59.496Z,31.70
2022-12-31T13:53:01.376Z,31.00
2022-12-31T13:55:38.689Z,30.20
2022-12-31T13:58:28.190Z,30.70
2022-12-31T14:01:26.287Z,29.70
2022-12-31T14:04:28.770Z,29.20
2022-12-31T14:07:14.060Z,30.10
2022-12-31T14:09:42.993Z,29.50
2022-12-31T14:12:20.862Z,29.20
2022-12-31T14:15:09.392Z,28.30
2022-12-31T14:18:18.744Z,32.20
2022-12-31T14:21:07.508Z,35.00
2022-12-31T14:24:04.267Z,34.90
2022-12-31T14:26:56.059Z,36.90
2022-12-31T14:29:58.656Z,37.00
2022-12-31T14:32:48.422Z,40.00
2022-12-31T14:35:35.195Z,37.30
2022-12-31T14:38:58.246Z,40.80
2022-12-31T14:41:55.354Z,38.70
2022-12-31T14:44:58.158Z,38.90
2022-12-31T14:47:47.273Z,39.30
2022-12-31T14:50:22.735Z,41.10
2022-12-31T14:53:08.231Z,41.30
2022-12-31T14:55:40.893Z,41.40
2022-12-31T14:58:42.733Z,42.20
2022-12-31T15:01:19.293Z,39.70
2022-12-31T15:03:51.779Z,41.20
2022-12-31T15:06:23.434Z,42.60
2022-12-31T15:09:31.871Z,43.80
2022-12-31T15:12:42.012Z,45.20
2022-12-31T15:15:55.277Z,45.80
2022-12-31T15:18:50.672Z,44.40
2022-12-31T15:21:55.534Z,56.00
2022-12-31T15:24:37.719Z,49.10
2022-12-31T15:27:38.854Z,46.30
2022-12-31T15:30:47.481Z,45.70
2022-12-31T15:33:29.308Z,39.80
2022-12-31T15:36:11.007Z,37.90
2022-12-31T15:38:49.881Z,37.20
2022-12-31T15:41:42.912Z,39.80
2022-12-31T15:44:28.935Z,35.10
2022-12-31T15:47:34.945Z,34.90
2022-12-31T15:50:17.672Z,40.30
2022-12-31T15:53:01.093Z,39.60
2022-12-31T15:58:26.653Z,50.10
2022-12-31T16:01:17.810Z,41.70
2022-12-31T16:04:01.835Z,42.20
2022-12-31T16:06:35.936Z,40.70
2022-12-31T16:09:18.952Z,42.10
2022-12-31T16:11:48.280Z,43.90
2022-12-31T16:14:36.777Z,43.30
2022-12-31T16:17:06.974Z,46.20
2022-12-31T16:19:44.871Z,47.00
2022-12-31T16:22:25.659Z,47.30
2022-12-31T16:27:52.039Z,47.00
2022-12-31T16:30:32.335Z,45.30
2022-12-31T16:33:05.966Z,49.10
2022-12-31T16:35:37.146Z,47.20
2022-12-31T16:38:16.045Z,52.60
2022-12-31T16:41:02.286Z,46.20
2022-12-31T16:43:39.702Z,43.00
2022-12-31T16:46:17.320Z,45.50
2022-12-31T16:48:54.621Z,52.30
2022-12-31T16:51:30.151Z,44.80
2022-12-31T16:54:01.853Z,51.50
2022-12-31T16:56:37.326Z,49.30
2022-12-31T16:59:46.035Z,44.90
2022-12-31T17:02:23.357Z,41.60
2022-12-31T17:04:56.343Z,44.40
2022-12-31T17:10:08.808Z,47.40
2022-12-31T17:15:46.949Z,43.30
2022-12-31T17:18:24.600Z,47.50
2022-12-31T17:20:55.766Z,46.70
2022-12-31T17:23:31.965Z,42.50
2022-12-31T17:26:13.392Z,47.40
2022-12-31T17:28:51.990Z,43.50
2022-12-31T17:31:39.839Z,45.70
2022-12-31T17:34:14.569Z,43.00
2022-12-31T17:37:18.852Z,46.70
2022-12-31T17:39:53.849Z,47.10
2022-12-31T17:42:34.066Z,51.90
2022-12-31T17:45:08.908Z,51.60
2022-12-31T17:47:41.590Z,53.50
2022-12-31T17:50:20.631Z,50.10
2022-12-31T17:52:49.792Z,53.70
2022-12-31T17:55:19.041Z,57.70
2022-12-31T17:57:58.440Z,54.80
2022-12-31T18:00:28.031Z,58.00
2022-12-31T18:02:56.896Z,58.30
2022-12-31T18:05:26.517Z,59.90
2022-12-31T18:07:55.346Z,60.90
2022-12-31T18:10:25.749Z,60.60
2022-12-31T18:12:54.605Z,59.70
2022-12-31T18:15:25.212Z,54.80
2022-12-31T18:17:53.969Z,53.80
2022-12-31T18:20:24.143Z,43.70
2022-12-31T18:22:53.059Z,45.10
2022-12-31T18:25:24.835Z,44.90
2022-12-31T18:27:53.631Z,49.10
2022-12-31T18:30:23.585Z,42.40
2022-12-31T18:32:52.581Z,41.30
2022-12-31T18:35:57.762Z,43.80
2022-12-31T18:38:15.485Z,41.50
2022-12-31T18:41:23.775Z,39.30
2022-12-31T18:43:52.976Z,39.90
2022-12-31T18:46:24.938Z,42.90
2022-12-31T18:48:53.819Z,42.10
2022-12-31T18:51:31.392Z,43.80
2022-12-31T18:54:02.123Z,46.80
2022-12-31T18:56:31.744Z,57.00
2022-12-31T18:59:02.742Z,73.70
2022-12-31T19:01:38.696Z,73.20
2022-12-31T19:04:26.569Z,49.60
2022-12-31T19:06:57.202Z,48.00
2022-12-31T19:12:15.477Z,51.00
2022-12-31T19:14:44.319Z,51.70
2022-12-31T19:17:13.166Z,46.90
2022-12-31T19:19:42.006Z,48.60
2022-12-31T19:22:16.011Z,50.60
2022-12-31T19:24:44.887Z,49.30
2022-12-31T19:27:14.036Z,51.70
2022-12-31T19:29:42.828Z,51.10
2022-12-31T19:32:11.692Z,52.00
2022-12-31T19:34:40.645Z,50.70
2022-12-31T19:37:16.012Z,51.90
2022-12-31T19:39:44.800Z,53.10
2022-12-31T19:42:16.340Z,52.10
2022-12-31T19:44:45.173Z,52.10
2022-12-31T19:47:14.256Z,44.80
2022-12-31T19:49:43.015Z,46.90
2022-12-31T19:52:11.794Z,43.00
2022-12-31T19:54:40.684Z,45.00
2022-12-31T19:57:09.462Z,45.40
2022-12-31T19:59:38.242Z,42.30
2022-12-31T20:02:07.614Z,41.90
2022-12-31T20:04:36.667Z,47.30
2022-12-31T20:07:05.362Z,46.30
2022-12-31T20:09:34.233Z,47.70
2022-12-31T20:12:02.955Z,46.20
2022-12-31T20:14:31.880Z,44.80
2022-12-31T20:17:00.690Z,45.00
2022-12-31T20:19:29.604Z,45.00
2022-12-31T20:21:58.448Z,43.70
2022-12-31T20:24:27.286Z,48.50
2022-12-31T20:26:56.057Z,47.60
2022-12-31T20:29:24.895Z,57.50
2022-12-31T20:31:53.691Z,54.40
2022-12-31T20:34:22.608Z,50.60
2022-12-31T20:36:58.164Z,49.30
2022-12-31T20:39:27.034Z,47.20
2022-12-31T20:41:55.941Z,45.70
2022-12-31T20:44:24.741Z,52.70
2022-12-31T20:46:53.505Z,51.70
2022-12-31T20:49:44.251Z,45.70
2022-12-31T20:52:11.223Z,42.80
2022-12-31T20:54:40.069Z,49.60
2022-12-31T20:57:08.808Z,48.80
2022-12-31T20:59:37.596Z,57.80
2022-12-31T21:02:22.861Z,51.50
2022-12-31T21:04:55.332Z,60.80
2022-12-31T21:07:24.631Z,55.30
2022-12-31T21:09:53.351Z,63.80
2022-12-31T21:12:40.455Z,72.20
2022-12-31T21:15:13.802Z,72.40
2022-12-31T21:17:43.164Z,72.00
2022-12-31T21:20:13.228Z,78.40
2022-12-31T21:22:41.943Z,87.50
2022-12-31T21:25:11.136Z,93.50
2022-12-31T21:27:39.904Z,95.20
2022-12-31T21:30:18.961Z,89.00
2022-12-31T21:32:48.776Z,105.20
2022-12-31T21:38:07.994Z,92.10
2022-12-31T21:40:39.489Z,67.40
2022-12-31T21:43:10.784Z,65.60
2022-12-31T21:45:39.913Z,62.70
2022-12-31T21:48:20.740Z,63.00
2022-12-31T21:51:05.195Z,50.40
2022-12-31T21:53:36.881Z,44.70
2022-12-31T21:56:11.682Z,44.00
2022-12-31T21:58:44.429Z,46.20
2022-12-31T22:01:40.313Z,49.60
2022-12-31T22:04:28.221Z,50.30
2022-12-31T22:06:58.384Z,75.40
2022-12-31T22:09:27.193Z,64.60
2022-12-31T22:11:55.960Z,78.90
2022-12-31T22:14:24.763Z,91.70
2022-12-31T22:16:53.574Z,107.90
2022-12-31T22:19:22.427Z,107.60
2022-12-31T22:21:51.267Z,100.60
2022-12-31T22:24:19.973Z,86.20
2022-12-31T22:26:48.819Z,86.60
2022-12-31T22:29:19.456Z,77.90
2022-12-31T22:31:48.239Z,80.80
2022-12-31T22:34:17.079Z,65.70
2022-12-31T22:36:45.889Z,80.60
2022-12-31T22:39:43.334Z,65.60
2022-12-31T22:42:05.147Z,66.80
2022-12-31T22:44:33.979Z,65.60
2022-12-31T22:47:02.748Z,64.70
2022-12-31T22:49:31.518Z,65.10
2022-12-31T22:52:04.218Z,62.10
2022-12-31T22:54:36.003Z,63.00
2022-12-31T22:57:05.189Z,72.20
2022-12-31T22:59:33.971Z,69.60
2022-12-31T23:02:02.808Z,47.30
2022-12-31T23:04:31.949Z,42.10
2022-12-31T23:07:01.181Z,40.30
2022-12-31T23:09:48.327Z,44.10
2022-12-31T23:12:17.111Z,44.60
2022-12-31T23:15:04.522Z,45.30
2022-12-31T23:17:51.603Z,47.00
2022-12-31T23:20:43.258Z,51.10
2022-12-31T23:23:16.252Z,42.50
2022-12-31T23:25:49.805Z,45.00
2022-12-31T23:28:27.590Z,48.30
2022-12-31T23:30:56.540Z,52.30
2022-12-31T23:33:26.519Z,47.30
2022-12-31T23:36:08.492Z,56.90
2022-12-31T23:38:37.233Z,57.90
2022-12-31T23:41:19.215Z,57.30
2022-12-31T23:43:48.497Z,63.60
2022-12-31T23:46:17.659Z,63.50
2022-12-31T23:48:46.416Z,59.30
2022-12-31T23:51:15.305Z,69.50
2022-12-31T23:53:44.129Z,60.60
2022-12-31T23:56:23.333Z,50.00
2022-12-31T23:58:58.091Z,57.10
